This is the latest recevied weather packets stored in our database for station/object HS5NMF. If no packets are shown the sender has not sent any weather packets the latest 10 day(s).
| Time | Temp. | Humidity | Pressure | Rain* | Wind** | Luminosity | Snow |
|---|---|---|---|---|---|---|---|
| 1777630074 | 29.44° C | 73% | 976 hPa | - | - | 0 W/m² | - |
| 1777629744 | 28.89° C | 73% | 976 hPa | - | - | 0 W/m² | - |
| 1777629416 | 29.44° C | 70% | 975 hPa | - | - | 0 W/m² | - |
| 1777629091 | 29.44° C | 69% | 975 hPa | - | - | 0 W/m² | - |
| 1777628761 | 29.44° C | 68% | 975 hPa | - | - | 0 W/m² | - |
| 1777628436 | 29.44° C | 70% | 975 hPa | - | - | 0 W/m² | - |
| 1777628111 | 28.33° C | 73% | 975 hPa | - | - | 0 W/m² | - |
| 1777627786 | 28.33° C | 73% | 975 hPa | - | - | 0 W/m² | - |
| 1777627460 | 28.33° C | 71% | 975 hPa | - | - | 0 W/m² | - |
| 1777627136 | 28.89° C | 69% | 975 hPa | - | - | 0 W/m² | - |
| 1777626812 | 28.89° C | 70% | 975 hPa | - | - | 0 W/m² | - |
| 1777626490 | 28.33° C | 71% | 975 hPa | - | - | 0 W/m² | - |
| 1777626165 | 28.33° C | 71% | 975 hPa | - | - | 0 W/m² | - |
| 1777625842 | 28.89° C | 69% | 976 hPa | - | - | 0 W/m² | - |
| 1777625520 | 29.44° C | 65% | 976 hPa | - | - | 0 W/m² | - |
| 1777625194 | 28.89° C | 64% | 976 hPa | - | - | 0 W/m² | - |
| 1777624872 | 28.89° C | 65% | 976 hPa | - | - | 0 W/m² | - |
| 1777624550 | 28.89° C | 64% | 976 hPa | - | - | 0 W/m² | - |
| 1777624226 | 29.44° C | 61% | 976 hPa | - | - | 0 W/m² | - |
| 1777623903 | 30° C | 59% | 976 hPa | - | - | 0 W/m² | - |
| 1777623583 | 30° C | 58% | 976 hPa | - | - | 0 W/m² | - |
| 1777623257 | 28.89° C | 61% | 976 hPa | - | - | 0 W/m² | - |
| 1777622935 | 28.89° C | 63% | 976 hPa | - | - | 0 W/m² | - |
| 1777622612 | 28.89° C | 63% | 976 hPa | - | - | 0 W/m² | - |
| 1777622289 | 28.89° C | 64% | 976 hPa | - | - | 0 W/m² | - |
* Rain since midnight (hover to see other rain measurements)
** Current wind speed in m/s (hover to see current wind gust speed)